Terminal Aerodrome Forecast
Issued by NWS

Home | Current Version | Previous Version | Text Only | Print | Product List | Glossary On
Versions: 1 2 3 4 5 6 7 8 9 10 11 12 13
000
FTUS45 KVEF 162320
TAFHND
TAF
KHND 162320Z 1700/1724 15008KT P6SM FEW120
     FM170600 19007KT P6SM FEW120
     FM171500 VRB05KT P6SM SCT120
     FM172000 10007KT P6SM SCT120=

USA.gov is the U.S. government's official web portal to all federal, state and local government web resources and services.